createdAt,value
2019-03-23T00:02:24.961Z,19.67
2019-03-23T00:04:55.065Z,21.30
2019-03-23T00:07:25.067Z,21.70
2019-03-23T00:09:55.128Z,23.83
2019-03-23T00:12:25.183Z,21.73
2019-03-23T00:14:55.224Z,21.60
2019-03-23T00:17:25.279Z,20.40
2019-03-23T00:19:55.297Z,19.93
2019-03-23T00:22:25.331Z,20.53
2019-03-23T00:24:55.335Z,19.33
2019-03-23T00:27:25.343Z,23.30
2019-03-23T00:29:55.396Z,21.57
2019-03-23T00:32:25.420Z,20.40
2019-03-23T00:34:55.413Z,19.90
2019-03-23T00:37:25.431Z,21.73
2019-03-23T00:39:55.498Z,21.27
2019-03-23T00:42:25.588Z,22.50
2019-03-23T00:44:55.586Z,18.77
2019-03-23T00:47:25.895Z,20.30
2019-03-23T00:49:55.976Z,19.40
2019-03-23T00:52:26.037Z,20.30
2019-03-23T00:54:56.051Z,20.93
2019-03-23T00:57:26.119Z,22.00
2019-03-23T00:59:56.168Z,20.10
2019-03-23T01:02:26.207Z,17.07
2019-03-23T01:04:56.247Z,21.90
2019-03-23T01:07:26.250Z,20.47
2019-03-23T01:09:56.261Z,20.17
2019-03-23T01:12:26.626Z,20.67
2019-03-23T01:14:56.660Z,19.77
2019-03-23T01:17:26.675Z,20.53
2019-03-23T01:19:56.712Z,19.47
2019-03-23T01:22:26.860Z,17.87
2019-03-23T01:24:56.831Z,17.87
2019-03-23T01:27:26.751Z,18.50
2019-03-23T01:29:56.731Z,19.43
2019-03-23T01:32:26.621Z,20.53
2019-03-23T01:34:56.576Z,19.57
2019-03-23T01:37:26.598Z,18.40
2019-03-23T01:39:56.569Z,19.83
2019-03-23T01:42:26.535Z,17.83
2019-03-23T01:44:56.530Z,18.63
2019-03-23T01:47:26.592Z,17.57
2019-03-23T01:49:56.635Z,17.07
2019-03-23T01:52:26.703Z,15.73
2019-03-23T01:54:56.881Z,18.43
2019-03-23T01:57:26.996Z,19.10
2019-03-23T01:59:57.022Z,17.57
2019-03-23T02:02:27.145Z,18.53
2019-03-23T02:04:57.218Z,17.57
2019-03-23T02:07:27.354Z,17.00
2019-03-23T02:09:57.465Z,16.00
2019-03-23T02:12:27.794Z,17.73
2019-03-23T02:14:57.942Z,18.27
2019-03-23T02:17:28.049Z,17.27
2019-03-23T02:19:58.044Z,19.23
2019-03-23T02:22:28.083Z,19.10
2019-03-23T02:24:58.403Z,17.90
2019-03-23T02:27:28.435Z,17.43
2019-03-23T02:29:58.477Z,22.07
2019-03-23T02:32:28.546Z,18.00
2019-03-23T02:34:58.571Z,19.10
2019-03-23T02:37:28.668Z,18.90
2019-03-23T02:39:58.702Z,18.70
2019-03-23T02:42:28.750Z,18.40
2019-03-23T02:44:58.856Z,19.10
2019-03-23T02:47:28.863Z,19.47
2019-03-23T02:49:58.928Z,20.13
2019-03-23T02:52:28.973Z,18.97
2019-03-23T02:54:58.982Z,18.03
2019-03-23T02:57:29.015Z,17.03
2019-03-23T02:59:59.153Z,17.30
2019-03-23T03:02:29.149Z,18.30
2019-03-23T03:04:59.234Z,20.50
2019-03-23T03:07:41.100Z,18.40
2019-03-23T03:10:00.901Z,20.23
2019-03-23T03:12:30.900Z,20.40
2019-03-23T03:15:00.854Z,15.90
2019-03-23T03:17:30.821Z,20.90
2019-03-23T03:20:00.779Z,16.80
2019-03-23T03:22:30.768Z,19.27
2019-03-23T03:25:00.717Z,19.17
2019-03-23T03:27:30.629Z,18.57
2019-03-23T03:30:00.733Z,22.70
2019-03-23T03:32:30.772Z,19.73
2019-03-23T03:35:00.795Z,18.43
2019-03-23T03:37:30.749Z,17.10
2019-03-23T03:40:00.724Z,17.83
2019-03-23T03:42:30.668Z,21.47
2019-03-23T03:45:00.706Z,17.10
2019-03-23T03:47:30.661Z,24.70
2019-03-23T03:50:00.678Z,18.53
2019-03-23T03:52:30.664Z,18.00
2019-03-23T03:55:00.595Z,18.50
2019-03-23T03:57:30.525Z,20.60
2019-03-23T04:00:00.591Z,22.83
2019-03-23T04:02:30.504Z,18.23
2019-03-23T04:05:00.551Z,19.17
2019-03-23T04:07:30.582Z,18.80
2019-03-23T04:10:00.608Z,20.50
2019-03-23T04:12:30.650Z,17.67
2019-03-23T04:15:00.630Z,22.37
2019-03-23T04:17:30.541Z,19.53
2019-03-23T04:20:00.634Z,24.33
2019-03-23T04:22:30.727Z,19.73
2019-03-23T04:25:00.700Z,21.63
2019-03-23T04:27:30.707Z,19.33
2019-03-23T04:30:00.721Z,18.47
2019-03-23T04:32:30.695Z,20.60
2019-03-23T04:35:00.699Z,23.27
2019-03-23T04:37:30.675Z,25.67
2019-03-23T04:40:00.703Z,22.30
2019-03-23T04:42:30.653Z,22.27
2019-03-23T04:45:00.622Z,17.40
2019-03-23T04:47:30.644Z,20.37
2019-03-23T04:50:00.612Z,18.50
2019-03-23T04:52:30.567Z,19.97
2019-03-23T04:55:00.494Z,23.73
2019-03-23T04:57:30.456Z,18.90
2019-03-23T05:00:00.430Z,24.93
2019-03-23T05:02:30.437Z,23.63
2019-03-23T05:05:00.438Z,26.10
2019-03-23T05:07:30.398Z,26.70
2019-03-23T05:10:00.469Z,24.37
2019-03-23T05:12:30.400Z,22.43
2019-03-23T05:15:00.309Z,22.53
2019-03-23T05:17:30.262Z,27.67
2019-03-23T05:20:00.337Z,24.43
2019-03-23T05:22:30.222Z,26.00
2019-03-23T05:25:00.338Z,24.80
2019-03-23T05:27:30.330Z,28.53
2019-03-23T05:30:00.381Z,30.67
2019-03-23T05:32:30.279Z,26.40
2019-03-23T05:35:00.497Z,24.03
2019-03-23T05:37:30.465Z,29.33
2019-03-23T05:40:00.470Z,23.37
2019-03-23T05:42:30.438Z,21.57
2019-03-23T05:45:00.437Z,23.73
2019-03-23T05:47:30.385Z,22.90
2019-03-23T05:50:00.420Z,22.80
2019-03-23T05:52:30.343Z,27.33
2019-03-23T05:55:00.320Z,27.47
2019-03-23T05:57:30.256Z,25.87
2019-03-23T06:00:00.389Z,31.00
2019-03-23T06:02:30.361Z,33.40
2019-03-23T06:05:00.386Z,30.67
2019-03-23T06:07:30.266Z,37.20
2019-03-23T06:10:00.343Z,35.13
2019-03-23T06:12:30.387Z,28.30
2019-03-23T06:15:00.565Z,27.13
2019-03-23T06:17:30.433Z,28.23
2019-03-23T06:20:00.433Z,26.63
2019-03-23T06:22:30.399Z,27.03
2019-03-23T06:25:00.405Z,22.57
2019-03-23T06:27:30.398Z,27.80
2019-03-23T06:30:00.393Z,22.23
2019-03-23T06:32:30.284Z,24.17
2019-03-23T06:35:00.357Z,23.03
2019-03-23T06:37:30.284Z,21.37
2019-03-23T06:40:00.285Z,22.27
2019-03-23T06:42:30.247Z,22.57
2019-03-23T06:45:00.335Z,21.57
2019-03-23T06:47:30.239Z,24.63
2019-03-23T06:50:00.342Z,22.33
2019-03-23T06:52:30.230Z,22.50
2019-03-23T06:55:00.329Z,21.80
2019-03-23T06:57:30.321Z,28.57
2019-03-23T07:00:00.345Z,22.70
2019-03-23T07:02:30.269Z,28.97
2019-03-23T07:05:00.343Z,36.53
2019-03-23T07:07:30.293Z,35.77
2019-03-23T07:10:00.300Z,33.17
2019-03-23T07:12:30.414Z,29.93
2019-03-23T07:15:00.375Z,31.47
2019-03-23T07:17:30.301Z,29.70
2019-03-23T07:20:00.345Z,27.80
2019-03-23T07:22:30.303Z,27.80
2019-03-23T07:25:00.320Z,27.60
2019-03-23T07:27:30.273Z,27.50
2019-03-23T07:30:00.420Z,27.23
2019-03-23T07:32:30.683Z,35.07
2019-03-23T07:35:00.570Z,26.57
2019-03-23T07:37:30.460Z,25.47
2019-03-23T07:40:00.439Z,25.73
2019-03-23T07:42:30.410Z,23.77
2019-03-23T07:45:00.411Z,18.33
2019-03-23T07:47:30.417Z,24.83
2019-03-23T07:50:00.411Z,27.30
2019-03-23T07:52:30.405Z,32.67
2019-03-23T07:55:08.645Z,30.13
2019-03-23T07:57:38.734Z,25.90
2019-03-23T08:00:09.322Z,26.73
2019-03-23T08:02:39.237Z,22.30
2019-03-23T08:05:10.262Z,21.70
2019-03-23T08:07:40.209Z,26.00
2019-03-23T08:10:11.534Z,25.23
2019-03-23T08:12:41.443Z,31.83
2019-03-23T08:15:11.934Z,26.50
2019-03-23T08:17:41.891Z,25.33
2019-03-23T08:20:11.879Z,23.97
2019-03-23T08:22:41.823Z,21.77
2019-03-23T08:25:11.709Z,24.13
2019-03-23T08:27:41.792Z,27.30
2019-03-23T08:30:11.840Z,31.40
2019-03-23T08:32:41.762Z,36.23
2019-03-23T08:35:11.776Z,29.67
2019-03-23T08:37:41.661Z,38.60
2019-03-23T08:40:11.535Z,37.87
2019-03-23T08:42:41.548Z,38.33
2019-03-23T08:45:11.672Z,39.23
2019-03-23T08:47:41.648Z,41.10
2019-03-23T08:50:11.961Z,37.87
2019-03-23T08:52:41.853Z,41.53
2019-03-23T08:55:11.787Z,42.00
2019-03-23T08:57:41.685Z,42.17
2019-03-23T09:00:13.163Z,42.27
2019-03-23T09:02:43.171Z,45.30
2019-03-23T09:05:13.155Z,48.50
2019-03-23T09:07:43.107Z,45.70
2019-03-23T09:10:13.129Z,44.07
2019-03-23T09:12:43.026Z,43.33
2019-03-23T09:15:12.996Z,42.80
2019-03-23T09:17:42.905Z,43.47
2019-03-23T09:20:14.026Z,43.07
2019-03-23T09:22:43.925Z,45.83
2019-03-23T09:25:13.806Z,48.37
2019-03-23T09:27:43.776Z,50.20
2019-03-23T09:30:15.193Z,44.43
2019-03-23T09:32:45.168Z,47.03
2019-03-23T09:35:15.039Z,47.67
2019-03-23T09:37:44.985Z,46.80
2019-03-23T09:40:14.939Z,49.73
2019-03-23T09:42:44.844Z,49.00
2019-03-23T09:45:14.864Z,49.60
2019-03-23T09:47:44.753Z,50.23
2019-03-23T09:50:15.135Z,50.83
2019-03-23T09:52:45.138Z,49.87
2019-03-23T09:55:15.089Z,54.17
2019-03-23T09:57:45.032Z,49.23
2019-03-23T10:00:15.109Z,52.70
2019-03-23T10:02:45.132Z,54.13
2019-03-23T10:05:15.055Z,58.30
2019-03-23T10:07:45.075Z,59.03
2019-03-23T10:10:21.811Z,55.50
2019-03-23T10:12:46.716Z,57.57
2019-03-23T10:15:16.677Z,49.37
2019-03-23T10:17:46.553Z,50.00
2019-03-23T10:20:16.524Z,52.83
2019-03-23T10:22:46.468Z,45.13
2019-03-23T10:25:16.356Z,49.90
2019-03-23T10:27:46.278Z,50.03
2019-03-23T10:30:16.397Z,55.23
2019-03-23T10:32:46.434Z,50.93
2019-03-23T10:35:16.403Z,51.47
2019-03-23T10:37:46.358Z,51.67
2019-03-23T10:40:16.295Z,54.90
2019-03-23T10:42:46.233Z,51.43
2019-03-23T10:45:16.264Z,48.77
2019-03-23T10:47:46.374Z,51.13
2019-03-23T10:50:16.661Z,53.13
2019-03-23T10:52:46.601Z,49.47
2019-03-23T10:55:16.513Z,51.03
2019-03-23T10:57:46.463Z,48.70
2019-03-23T11:00:16.456Z,54.10
2019-03-23T11:02:46.340Z,47.63
2019-03-23T11:05:16.265Z,53.37
2019-03-23T11:07:46.177Z,46.27
2019-03-23T11:10:16.269Z,47.53
2019-03-23T11:12:46.295Z,46.93
2019-03-23T11:15:16.225Z,47.67
2019-03-23T11:17:46.185Z,47.60
2019-03-23T11:20:16.218Z,45.83
2019-03-23T11:22:46.163Z,47.40
2019-03-23T11:25:16.060Z,44.20
2019-03-23T11:27:46.057Z,46.27
2019-03-23T11:30:16.222Z,43.83
2019-03-23T11:32:46.489Z,42.20
2019-03-23T11:35:16.463Z,39.23
2019-03-23T11:37:46.690Z,41.43
2019-03-23T11:40:16.775Z,37.70
2019-03-23T11:42:50.177Z,43.53
2019-03-23T11:45:18.391Z,43.37
2019-03-23T11:47:48.445Z,41.63
2019-03-23T11:50:18.362Z,41.50
2019-03-23T11:52:48.372Z,40.67
2019-03-23T11:55:18.252Z,36.13
2019-03-23T11:57:48.216Z,33.80
2019-03-23T12:00:18.691Z,33.67
2019-03-23T12:02:48.683Z,34.30
2019-03-23T12:05:18.579Z,38.40
2019-03-23T12:07:49.448Z,34.77
2019-03-23T12:10:19.409Z,40.53
2019-03-23T12:12:49.315Z,41.10
2019-03-23T12:15:19.336Z,36.30
2019-03-23T12:17:49.258Z,31.97
2019-03-23T12:20:19.229Z,35.00
2019-03-23T12:22:49.171Z,36.77
2019-03-23T12:25:19.044Z,38.00
2019-03-23T12:27:48.970Z,35.07
2019-03-23T12:30:19.229Z,30.90
2019-03-23T12:32:49.141Z,33.67
2019-03-23T12:35:19.100Z,34.50
2019-03-23T12:37:49.052Z,35.80
2019-03-23T12:40:19.046Z,34.27
2019-03-23T12:42:49.054Z,30.17
2019-03-23T12:45:19.033Z,33.20
2019-03-23T12:47:49.019Z,34.30
2019-03-23T12:50:19.010Z,32.83
2019-03-23T12:52:49.051Z,35.27
2019-03-23T12:55:18.979Z,36.50
2019-03-23T12:57:48.956Z,28.73
2019-03-23T13:00:19.048Z,30.00
2019-03-23T13:02:49.002Z,29.70
2019-03-23T13:05:18.901Z,30.63
2019-03-23T13:07:48.846Z,32.37
2019-03-23T13:10:18.809Z,37.37
2019-03-23T13:12:48.769Z,33.03
2019-03-23T13:15:18.656Z,31.37
2019-03-23T13:17:48.659Z,29.47
2019-03-23T13:20:18.623Z,30.83
2019-03-23T13:22:48.539Z,32.33
2019-03-23T13:25:18.539Z,33.23
2019-03-23T13:27:48.418Z,32.90
2019-03-23T13:30:18.354Z,36.80
2019-03-23T13:32:48.498Z,29.20
2019-03-23T13:35:18.466Z,27.53
2019-03-23T13:37:48.378Z,32.13
2019-03-23T13:40:18.400Z,29.30
2019-03-23T13:42:48.399Z,29.20
2019-03-23T13:45:18.445Z,86.73
2019-03-23T13:47:48.351Z,34.57
2019-03-23T13:50:26.557Z,31.37
2019-03-23T13:52:56.499Z,29.20
2019-03-23T13:55:28.543Z,24.57
2019-03-23T13:58:08.589Z,26.70
2019-03-23T14:00:38.815Z,31.87
2019-03-23T14:03:08.746Z,36.37
2019-03-23T14:05:38.875Z,27.53
2019-03-23T14:08:08.781Z,25.43
2019-03-23T14:10:38.743Z,31.30
2019-03-23T14:13:08.647Z,27.90
2019-03-23T14:15:38.558Z,28.60
2019-03-23T14:18:08.541Z,24.80
2019-03-23T14:20:38.527Z,29.80
2019-03-23T14:23:08.508Z,26.70
2019-03-23T14:25:38.529Z,25.07
2019-03-23T14:28:08.444Z,26.10
2019-03-23T14:30:38.473Z,25.77
2019-03-23T14:33:08.543Z,25.37
2019-03-23T14:35:38.579Z,26.57
2019-03-23T14:38:08.579Z,23.57
2019-03-23T14:40:38.560Z,21.80
2019-03-23T14:43:08.470Z,20.63
2019-03-23T14:45:38.451Z,19.40
2019-03-23T14:48:08.490Z,20.13
2019-03-23T14:50:38.439Z,21.13
2019-03-23T14:53:08.440Z,19.00
2019-03-23T14:55:38.435Z,20.33
2019-03-23T14:58:08.374Z,18.73
2019-03-23T15:00:38.340Z,18.53
2019-03-23T15:03:08.322Z,19.87
2019-03-23T15:05:41.490Z,20.60
2019-03-23T15:08:11.389Z,22.30
2019-03-23T15:10:41.373Z,26.77
2019-03-23T15:13:11.524Z,21.87
2019-03-23T15:15:41.431Z,21.93
2019-03-23T15:18:11.403Z,19.17
2019-03-23T15:20:41.350Z,21.17
2019-03-23T15:23:11.342Z,23.83
2019-03-23T15:25:41.223Z,17.93
2019-03-23T15:28:11.171Z,19.83
2019-03-23T15:30:41.155Z,18.30
2019-03-23T15:33:11.045Z,17.17
2019-03-23T15:35:40.956Z,19.13
2019-03-23T15:38:10.801Z,16.70
2019-03-23T15:40:40.687Z,15.83
2019-03-23T15:43:10.609Z,19.63
2019-03-23T15:45:40.627Z,16.60
2019-03-23T15:48:10.526Z,17.90
2019-03-23T15:50:40.459Z,22.57
2019-03-23T15:53:10.456Z,16.20
2019-03-23T15:55:40.356Z,17.33
2019-03-23T15:58:10.319Z,18.50
2019-03-23T16:00:40.318Z,18.93
2019-03-23T16:03:10.219Z,19.07
2019-03-23T16:05:41.045Z,17.00
2019-03-23T16:08:11.030Z,16.83
2019-03-23T16:10:40.961Z,17.20
2019-03-23T16:13:10.993Z,16.93
2019-03-23T16:15:40.926Z,15.67
2019-03-23T16:18:10.790Z,16.20
2019-03-23T16:20:40.791Z,16.80
2019-03-23T16:23:10.787Z,18.60
2019-03-23T16:25:40.778Z,20.33
2019-03-23T16:28:10.773Z,22.97
2019-03-23T16:30:40.708Z,17.37
2019-03-23T16:33:10.607Z,18.10
2019-03-23T16:35:40.529Z,17.77
2019-03-23T16:38:10.510Z,14.60
2019-03-23T16:40:40.488Z,17.73
2019-03-23T16:43:10.394Z,16.57
2019-03-23T16:45:40.346Z,20.07
2019-03-23T16:48:10.269Z,20.37
2019-03-23T16:50:40.204Z,22.13
2019-03-23T16:53:10.135Z,24.13
2019-03-23T16:55:40.057Z,21.17
2019-03-23T16:58:16.020Z,21.27
2019-03-23T17:00:41.598Z,24.10
2019-03-23T17:03:11.531Z,24.73
2019-03-23T17:05:41.491Z,31.03
2019-03-23T17:08:11.509Z,40.23
2019-03-23T17:10:41.550Z,40.57
2019-03-23T17:13:11.522Z,31.80
2019-03-23T17:15:41.393Z,25.90
2019-03-23T17:18:11.363Z,34.33
2019-03-23T17:20:41.341Z,31.40
2019-03-23T17:23:11.362Z,30.87
2019-03-23T17:25:41.324Z,28.50
2019-03-23T17:28:11.282Z,35.30
2019-03-23T17:30:41.245Z,36.93
2019-03-23T17:33:11.209Z,33.03
2019-03-23T17:35:41.203Z,35.87
2019-03-23T17:38:11.133Z,32.57
2019-03-23T17:40:41.131Z,47.47
2019-03-23T17:43:11.158Z,44.77
2019-03-23T17:45:41.024Z,47.30
2019-03-23T17:48:10.959Z,53.03
2019-03-23T17:50:40.911Z,47.03
2019-03-23T17:53:10.779Z,37.83
2019-03-23T17:55:40.722Z,35.20
2019-03-23T17:58:10.700Z,32.90
2019-03-23T18:00:40.692Z,38.80
2019-03-23T18:03:10.691Z,45.67
2019-03-23T18:05:41.033Z,44.03
2019-03-23T18:08:12.444Z,43.40
2019-03-23T18:10:42.379Z,43.53
2019-03-23T18:13:16.847Z,37.93
2019-03-23T18:15:44.235Z,45.43
2019-03-23T18:18:14.258Z,36.90
2019-03-23T18:20:44.248Z,41.13
2019-03-23T18:23:15.870Z,41.67
2019-03-23T18:25:45.945Z,40.67
2019-03-23T18:28:15.986Z,40.40
2019-03-23T18:30:46.177Z,36.77
2019-03-23T18:33:16.197Z,33.70
2019-03-23T18:35:46.091Z,40.50
2019-03-23T18:38:16.088Z,34.87
2019-03-23T18:40:46.392Z,36.90
2019-03-23T18:43:26.682Z,33.00
2019-03-23T18:45:48.143Z,32.83
2019-03-23T18:48:18.114Z,32.77
2019-03-23T18:50:48.271Z,33.10
2019-03-23T18:53:18.289Z,31.90
2019-03-23T18:55:48.235Z,36.17
2019-03-23T18:58:18.209Z,30.23
2019-03-23T19:00:48.218Z,31.90
2019-03-23T19:03:18.139Z,35.13
2019-03-23T19:05:48.129Z,34.13
2019-03-23T19:08:18.117Z,34.07
2019-03-23T19:10:48.154Z,44.20
2019-03-23T19:13:18.174Z,47.80
2019-03-23T19:15:48.179Z,43.63
2019-03-23T19:18:18.203Z,42.80
2019-03-23T19:20:48.189Z,44.13
2019-03-23T19:23:18.208Z,33.40
2019-03-23T19:25:48.210Z,38.10
2019-03-23T19:28:18.214Z,28.73
2019-03-23T19:30:48.194Z,28.47
2019-03-23T19:33:18.165Z,28.07
2019-03-23T19:35:48.101Z,29.77
2019-03-23T19:38:18.282Z,25.07
2019-03-23T19:40:48.495Z,27.00
2019-03-23T19:43:18.519Z,27.03
2019-03-23T19:45:48.515Z,29.10
2019-03-23T19:48:18.432Z,28.93
2019-03-23T19:50:48.460Z,27.93
2019-03-23T19:53:18.455Z,24.57
2019-03-23T19:55:48.438Z,25.20
2019-03-23T19:58:18.418Z,28.20
2019-03-23T20:00:48.380Z,25.60
2019-03-23T20:03:19.281Z,24.77
2019-03-23T20:05:49.453Z,25.50
2019-03-23T20:08:19.450Z,24.57
2019-03-23T20:10:49.439Z,26.17
2019-03-23T20:13:19.393Z,30.13
2019-03-23T20:15:49.282Z,21.43
2019-03-23T20:18:19.230Z,24.07
2019-03-23T20:20:49.260Z,25.57
2019-03-23T20:23:19.245Z,25.53
2019-03-23T20:25:49.170Z,22.50
2019-03-23T20:28:19.235Z,22.73
2019-03-23T20:30:49.314Z,26.20
2019-03-23T20:33:19.903Z,27.63
2019-03-23T20:35:50.060Z,27.47
2019-03-23T20:38:20.017Z,24.07
2019-03-23T20:40:49.994Z,21.17
2019-03-23T20:43:19.940Z,21.00
2019-03-23T20:45:49.912Z,20.83
2019-03-23T20:48:20.415Z,19.33
2019-03-23T20:50:50.551Z,21.07
2019-03-23T20:53:20.635Z,19.47
2019-03-23T20:55:50.697Z,24.73
2019-03-23T20:58:20.627Z,18.53
2019-03-23T21:00:50.631Z,19.77
2019-03-23T21:03:20.624Z,20.47
2019-03-23T21:05:50.683Z,18.30
2019-03-23T21:08:20.652Z,16.97
2019-03-23T21:10:50.617Z,21.87
2019-03-23T21:13:20.580Z,16.97
2019-03-23T21:15:50.843Z,19.13
2019-03-23T21:18:20.850Z,20.00
2019-03-23T21:20:50.911Z,37.30
2019-03-23T21:23:20.884Z,29.23
2019-03-23T21:25:50.845Z,15.60
2019-03-23T21:28:20.786Z,15.97
2019-03-23T21:30:50.785Z,15.73
2019-03-23T21:33:20.783Z,17.60
2019-03-23T21:35:50.777Z,15.10
2019-03-23T21:38:20.794Z,16.90
2019-03-23T21:40:50.712Z,15.87
2019-03-23T21:43:20.625Z,17.90
2019-03-23T21:45:50.545Z,15.33
2019-03-23T21:48:20.465Z,15.67
2019-03-23T21:50:50.425Z,16.07
2019-03-23T21:53:20.478Z,16.03
2019-03-23T21:55:50.503Z,14.20
2019-03-23T21:58:20.494Z,16.47
2019-03-23T22:00:50.436Z,13.73
2019-03-23T22:03:20.308Z,14.77
2019-03-23T22:05:50.238Z,13.70
2019-03-23T22:08:20.212Z,13.87
2019-03-23T22:10:50.187Z,13.03
2019-03-23T22:13:20.125Z,11.07
2019-03-23T22:15:50.131Z,12.23
2019-03-23T22:18:20.967Z,10.77
2019-03-23T22:20:50.975Z,13.27
2019-03-23T22:23:20.884Z,14.33
2019-03-23T22:25:50.809Z,15.57
2019-03-23T22:28:20.823Z,20.03
2019-03-23T22:30:50.755Z,16.17
2019-03-23T22:33:20.681Z,17.17
2019-03-23T22:35:50.677Z,15.57
2019-03-23T22:38:20.674Z,18.03
2019-03-23T22:40:50.660Z,21.80
2019-03-23T22:43:20.609Z,18.63
2019-03-23T22:45:50.653Z,16.20
2019-03-23T22:48:20.645Z,17.93
2019-03-23T22:50:50.653Z,12.20
2019-03-23T22:53:20.630Z,13.97
2019-03-23T22:55:50.576Z,12.90
2019-03-23T22:58:20.595Z,12.80
2019-03-23T23:00:51.932Z,11.47
2019-03-23T23:03:21.844Z,11.23
2019-03-23T23:05:51.839Z,12.63
2019-03-23T23:08:21.808Z,10.40
2019-03-23T23:10:51.733Z,12.53
2019-03-23T23:13:21.718Z,12.20
2019-03-23T23:15:51.704Z,11.67
2019-03-23T23:18:21.582Z,12.27
2019-03-23T23:20:51.465Z,15.43
2019-03-23T23:23:21.463Z,10.07
2019-03-23T23:25:51.357Z,12.80
2019-03-23T23:28:21.255Z,12.93
2019-03-23T23:30:51.242Z,12.17
2019-03-23T23:33:21.147Z,10.13
2019-03-23T23:35:51.094Z,9.80
2019-03-23T23:38:21.090Z,14.17
2019-03-23T23:40:51.068Z,12.13
2019-03-23T23:43:21.063Z,13.97
2019-03-23T23:45:50.978Z,12.47
2019-03-23T23:48:20.963Z,15.43
2019-03-23T23:50:50.895Z,13.40
2019-03-23T23:53:20.897Z,13.33
2019-03-23T23:55:50.878Z,13.80
2019-03-23T23:58:20.835Z,13.77
